Time;durP1;ratioP1;P1;durP2;ratioP2;P2;SDS_P1;SDS_P2;PMS_P1;PMS_P2;Temp;Humidity;BMP_temperature;BMP_pressure;BME280_temperature;BME280_humidity;BME280_pressure;Samples;Min_cycle;Max_cycle;Signal;HPM_P1;HPM_P2
2021/08/10 00:02:12;;;;;;;8.73;4.22;;;;;;;21.99;57.74;100166.50;1700254;84;21435;-72
2021/08/10 00:04:38;;;;;;;9.80;4.15;;;;;;;21.95;57.94;100165.26;1700301;84;21436;-72
2021/08/10 00:07:05;;;;;;;5.37;3.98;;;;;;;21.93;58.04;100169.50;1726288;83;21491;-72
2021/08/10 00:09:31;;;;;;;8.23;4.42;;;;;;;21.93;58.31;100164.64;1720056;83;21860;-72
2021/08/10 00:11:58;;;;;;;5.78;4.50;;;;;;;21.91;58.47;100164.84;1726907;82;21049;-71
2021/08/10 00:14:25;;;;;;;7.67;4.53;;;;;;;21.91;58.95;100161.33;1762768;80;21393;-71
2021/08/10 00:16:53;;;;;;;6.72;4.17;;;;;;;21.89;59.08;100158.81;1736832;80;21118;-71
2021/08/10 00:19:19;;;;;;;6.42;4.65;;;;;;;21.87;59.23;100160.88;1735184;82;20952;-71
2021/08/10 00:21:46;;;;;;;6.87;4.58;;;;;;;21.86;59.41;100167.29;1740063;82;22239;-71
2021/08/10 00:24:12;;;;;;;6.40;4.30;;;;;;;21.83;59.53;100166.35;1707410;83;20957;-71
2021/08/10 00:26:39;;;;;;;7.90;4.40;;;;;;;21.79;59.75;100165.08;1741039;80;20957;-71
2021/08/10 00:29:06;;;;;;;5.15;4.37;;;;;;;21.75;60.00;100165.69;1736789;81;21482;-71
2021/08/10 00:31:34;;;;;;;6.75;4.75;;;;;;;21.66;60.31;100161.81;1734127;82;21003;-71
2021/08/10 00:34:01;;;;;;;6.53;4.83;;;;;;;21.59;60.71;100168.18;1728404;80;22177;-71
2021/08/10 00:36:28;;;;;;;9.20;5.10;;;;;;;21.50;60.85;100166.16;1761210;80;20941;-71
2021/08/10 00:38:55;;;;;;;8.28;4.90;;;;;;;21.46;61.07;100159.53;1749355;80;21008;-71
2021/08/10 00:41:22;;;;;;;7.70;5.12;;;;;;;21.41;61.14;100160.11;1769763;80;21017;-71
2021/08/10 00:43:51;;;;;;;8.85;4.67;;;;;;;21.36;61.32;100153.69;1743448;82;21425;-72
2021/08/10 00:46:19;;;;;;;7.25;4.58;;;;;;;21.31;61.56;100158.81;1745542;80;22199;-71
2021/08/10 00:48:48;;;;;;;6.40;5.50;;;;;;;21.25;61.78;100155.55;1742443;81;20969;-71
2021/08/10 00:51:16;;;;;;;6.45;4.92;;;;;;;21.20;61.95;100156.64;1742368;82;20985;-72
2021/08/10 00:53:44;;;;;;;5.58;4.92;;;;;;;21.16;62.32;100142.78;1749300;81;21485;-71
2021/08/10 00:56:13;;;;;;;11.68;5.70;;;;;;;21.14;62.67;100144.33;1754518;81;21308;-72
2021/08/10 00:58:42;;;;;;;8.23;5.65;;;;;;;21.11;63.03;100140.67;1754017;81;22264;-71
2021/08/10 01:01:09;;;;;;;5.95;5.33;;;;;;;21.09;63.35;100140.05;1747471;81;20981;-71
2021/08/10 01:03:35;;;;;;;7.08;5.42;;;;;;;21.06;63.73;100136.93;1736376;80;21003;-71
2021/08/10 01:06:07;;;;;;;6.80;5.50;;;;;;;21.02;64.04;100139.16;1725536;82;21465;-71
2021/08/10 01:09:16;;;;;;;6.55;5.40;;;;;;;20.98;64.10;100141.09;1754636;80;21481;-72
2021/08/10 01:12:08;;;;;;;7.17;5.78;;;;;;;20.95;64.44;100140.16;1721948;83;21000;-71
2021/08/10 01:15:02;;;;;;;9.48;5.72;;;;;;;20.93;64.64;100143.01;1749927;81;21004;-71
2021/08/10 01:18:06;;;;;;;8.28;5.70;;;;;;;20.91;65.03;100142.37;1755451;80;21050;-71
2021/08/10 01:21:09;;;;;;;7.65;5.58;;;;;;;20.88;65.11;100142.78;1749717;81;21031;-71
2021/08/10 01:23:37;;;;;;;6.70;5.97;;;;;;;20.84;65.47;100148.20;1747656;81;21056;-71
2021/08/10 01:26:27;;;;;;;6.97;5.37;;;;;;;20.81;65.93;100142.71;1749733;81;21532;-72
2021/08/10 01:29:23;;;;;;;10.23;5.42;;;;;;;20.79;66.04;100146.63;1733655;80;21052;-71
2021/08/10 01:31:51;;;;;;;6.22;5.62;;;;;;;20.77;66.18;100144.14;1692513;81;21372;-71
2021/08/10 01:34:29;;;;;;;8.08;5.62;;;;;;;20.73;66.31;100144.19;1746106;81;20989;-71
2021/08/10 01:37:02;;;;;;;6.40;5.70;;;;;;;20.69;66.48;100142.92;1748427;81;20985;-71
2021/08/10 01:39:30;;;;;;;7.53;5.55;;;;;;;20.68;66.63;100145.30;1730424;80;22472;-72
2021/08/10 01:41:58;;;;;;;7.55;5.80;;;;;;;20.67;66.64;100144.98;1710032;83;20962;-71
2021/08/10 01:44:27;;;;;;;7.67;5.78;;;;;;;20.65;66.86;100139.46;1743348;81;21480;-71
2021/08/10 01:46:55;;;;;;;7.60;5.95;;;;;;;20.63;66.98;100140.17;1749068;81;21021;-71
2021/08/10 01:49:23;;;;;;;6.78;6.08;;;;;;;20.60;67.19;100140.05;1743885;80;20952;-71
2021/08/10 01:51:52;;;;;;;6.12;5.50;;;;;;;20.57;67.37;100145.81;1732284;81;22527;-71
2021/08/10 01:54:21;;;;;;;7.75;6.33;;;;;;;20.55;67.54;100146.49;1753031;81;20913;-71
2021/08/10 01:56:47;;;;;;;9.20;6.08;;;;;;;20.51;67.55;100144.72;1754874;81;21031;-72
2021/08/10 01:59:17;;;;;;;10.15;5.80;;;;;;;20.48;67.69;100145.11;1753945;80;21005;-71
2021/08/10 02:01:44;;;;;;;6.20;5.60;;;;;;;20.48;67.76;100146.97;1749104;81;21092;-71
2021/08/10 02:04:16;;;;;;;8.00;5.35;;;;;;;20.47;67.77;100142.11;1750515;81;21813;-71
2021/08/10 02:06:47;;;;;;;7.65;5.83;;;;;;;20.48;67.68;100140.26;1718195;82;21469;-71
2021/08/10 02:09:17;;;;;;;8.48;5.62;;;;;;;20.46;67.62;100141.80;1716740;80;21032;-71
2021/08/10 02:11:47;;;;;;;7.28;5.03;;;;;;;20.46;67.59;100141.80;1742457;81;20989;-71
2021/08/10 02:14:16;;;;;;;8.10;5.53;;;;;;;20.45;67.55;100137.94;1727309;81;21106;-71
2021/08/10 02:16:44;;;;;;;8.30;5.70;;;;;;;20.45;67.51;100136.59;1745947;81;21819;-71
2021/08/10 02:19:14;;;;;;;8.05;5.28;;;;;;;20.46;67.46;100141.80;1745528;80;21052;-71
2021/08/10 02:22:06;;;;;;;7.28;4.95;;;;;;;20.45;67.44;100141.45;1745506;82;21004;-71
2021/08/10 02:24:59;;;;;;;6.05;5.45;;;;;;;20.46;67.43;100141.80;1764024;80;20996;-71
2021/08/10 02:27:49;;;;;;;10.90;5.70;;;;;;;20.44;67.46;100145.16;1772058;80;21013;-71
2021/08/10 02:30:24;;;;;;;7.80;5.17;;;;;;;20.42;67.46;100139.13;1747269;82;21818;-71
2021/08/10 02:32:50;;;;;;;5.87;5.20;;;;;;;20.40;67.51;100143.86;1749265;81;20962;-71
2021/08/10 02:35:23;;;;;;;9.88;5.30;;;;;;;20.39;67.52;100140.86;1751045;80;21008;-71
2021/08/10 02:37:51;;;;;;;7.70;5.37;;;;;;;20.39;67.51;100144.05;1733426;81;21021;-71
2021/08/10 02:40:21;;;;;;;7.95;5.60;;;;;;;20.37;67.63;100138.89;1745805;80;20971;-71
2021/08/10 02:42:52;;;;;;;6.28;5.22;;;;;;;20.36;67.69;100139.05;1736884;81;21874;-72
2021/08/10 02:45:20;;;;;;;8.83;5.60;;;;;;;20.33;67.91;100144.30;1746113;80;21486;-71
2021/08/10 02:47:56;;;;;;;6.30;5.53;;;;;;;20.30;68.02;100135.30;1753291;80;21426;-71
2021/08/10 02:50:26;;;;;;;6.20;5.47;;;;;;;20.29;68.15;100142.52;1765915;80;21468;-71
2021/08/10 02:52:55;;;;;;;7.97;5.45;;;;;;;20.28;68.26;100143.54;1750314;81;21064;-71
2021/08/10 02:55:23;;;;;;;7.67;5.87;;;;;;;20.27;68.49;100149.09;1751056;80;22488;-71
2021/08/10 02:58:10;;;;;;;7.58;5.83;;;;;;;20.24;68.66;100148.11;1727480;81;21063;-71
2021/08/10 03:00:48;;;;;;;6.37;5.78;;;;;;;20.23;68.94;100142.44;1749932;81;21542;-71
2021/08/10 03:03:18;;;;;;;6.28;5.67;;;;;;;20.24;69.20;100145.44;1750245;81;21004;-72
2021/08/10 03:05:45;;;;;;;7.67;6.25;;;;;;;20.23;69.41;100143.27;1756238;80;21172;-71
2021/08/10 03:08:22;;;;;;;7.67;5.92;;;;;;;20.22;69.54;100142.12;1721372;80;21838;-71
2021/08/10 03:10:49;;;;;;;10.43;5.42;;;;;;;20.21;69.77;100151.19;1751779;81;21005;-71
2021/08/10 03:13:17;;;;;;;7.92;5.90;;;;;;;20.21;69.90;100149.84;1750064;81;20990;-71
2021/08/10 03:15:47;;;;;;;6.83;6.12;;;;;;;20.21;70.12;100143.97;1763837;80;21047;-72
2021/08/10 03:18:14;;;;;;;10.03;6.25;;;;;;;20.22;70.34;100148.82;1730576;81;21608;-71
2021/08/10 03:20:43;;;;;;;7.58;6.25;;;;;;;20.21;70.42;100153.36;1750503;80;21769;-72
2021/08/10 03:23:17;;;;;;;7.58;5.87;;;;;;;20.19;70.52;100152.72;1750538;81;20953;-71
2021/08/10 03:25:44;;;;;;;8.20;6.47;;;;;;;20.21;70.59;100147.99;1752154;81;21047;-71
2021/08/10 03:28:12;;;;;;;7.17;6.17;;;;;;;20.22;70.85;100146.14;1746876;81;20953;-71
2021/08/10 03:30:39;;;;;;;6.97;6.30;;;;;;;20.23;70.86;100141.09;1730101;80;21078;-71
2021/08/10 03:33:06;;;;;;;7.40;6.30;;;;;;;20.24;71.02;100143.58;1745725;81;21725;-72
2021/08/10 03:35:34;;;;;;;7.62;6.80;;;;;;;20.24;71.07;100144.92;1741215;80;21011;-71
2021/08/10 03:38:01;;;;;;;11.03;6.60;;;;;;;20.27;71.22;100151.78;1751005;81;20973;-71
2021/08/10 03:40:27;;;;;;;7.37;6.37;;;;;;;20.30;71.28;100149.54;1726103;80;21463;-72
2021/08/10 03:42:55;;;;;;;7.47;6.65;;;;;;;20.30;71.40;100135.30;1748641;81;21154;-72
2021/08/10 03:45:24;;;;;;;8.08;6.15;;;;;;;20.32;71.50;100139.95;1753777;80;21835;-72
2021/08/10 03:47:52;;;;;;;10.68;6.92;;;;;;;20.34;71.56;100138.42;1753210;80;20960;-72
2021/08/10 03:50:20;;;;;;;10.48;6.75;;;;;;;20.37;71.64;100141.56;1755201;80;20992;-73
2021/08/10 03:52:49;;;;;;;9.03;7.10;;;;;;;20.40;71.66;100138.50;1752656;80;20983;-73
2021/08/10 03:55:18;;;;;;;10.38;6.95;;;;;;;20.44;71.69;100145.67;1752114;81;20992;-73
2021/08/10 03:57:46;;;;;;;7.90;6.78;;;;;;;20.48;71.73;100146.45;1747418;81;22109;-73
2021/08/10 04:00:15;;;;;;;8.60;6.12;;;;;;;20.50;71.67;100144.41;1726617;82;21579;-76
2021/08/10 04:02:45;;;;;;;7.60;6.67;;;;;;;20.55;71.76;100145.16;1715141;82;20993;-77
2021/08/10 04:05:14;;;;;;;7.95;6.35;;;;;;;20.58;71.72;100146.96;1741443;80;20991;-75
2021/08/10 04:07:41;;;;;;;8.90;7.22;;;;;;;20.63;71.71;100138.83;1725558;82;21404;-76
2021/08/10 04:10:11;;;;;;;7.53;6.78;;;;;;;20.66;71.72;100137.95;1751772;81;21816;-77
2021/08/10 04:12:37;;;;;;;7.28;6.55;;;;;;;20.70;71.71;100139.73;1760722;80;20952;-76
2021/08/10 04:15:06;;;;;;;8.70;6.80;;;;;;;20.74;71.69;100132.94;1764696;80;21071;-75
2021/08/10 04:17:37;;;;;;;7.33;6.62;;;;;;;20.78;71.67;100136.40;1764283;80;21044;-73
2021/08/10 04:20:07;;;;;;;8.28;6.80;;;;;;;20.82;71.64;100129.61;1729852;82;21590;-75
2021/08/10 04:22:35;;;;;;;9.60;7.00;;;;;;;20.84;71.60;100127.58;1709154;82;21866;-74
2021/08/10 04:25:06;;;;;;;9.78;7.30;;;;;;;20.89;71.59;100129.67;1688508;83;21448;-74
2021/08/10 04:27:32;;;;;;;10.50;6.85;;;;;;;20.94;71.52;100135.78;1693039;82;21643;-73
2021/08/10 04:30:00;;;;;;;8.03;6.62;;;;;;;20.97;71.47;100136.24;1723602;82;21009;-72
2021/08/10 04:32:30;;;;;;;7.58;6.67;;;;;;;21.02;71.47;100140.50;1719905;83;21090;-73
2021/08/10 04:34:58;;;;;;;8.00;7.10;;;;;;;21.07;71.33;100144.78;1718416;82;21800;-74
2021/08/10 04:37:25;;;;;;;10.43;6.87;;;;;;;21.13;71.21;100149.87;1717463;83;21005;-73
2021/08/10 04:39:52;;;;;;;10.03;7.05;;;;;;;21.20;71.12;100149.92;1681278;84;20957;-73
2021/08/10 04:42:21;;;;;;;9.43;7.05;;;;;;;21.26;70.99;100149.15;1713910;82;20965;-73
2021/08/10 04:44:47;;;;;;;7.67;6.85;;;;;;;21.35;70.84;100161.44;1685808;83;21016;-73
2021/08/10 04:47:14;;;;;;;7.55;6.75;;;;;;;21.40;70.69;100155.77;1666613;83;21785;-73
2021/08/10 04:49:42;;;;;;;8.30;6.80;;;;;;;21.45;70.49;100161.91;1710394;83;21096;-72
2021/08/10 04:52:09;;;;;;;10.68;7.20;;;;;;;21.49;70.41;100153.76;1670991;84;21486;-73
2021/08/10 04:54:36;;;;;;;7.17;6.35;;;;;;;21.55;70.29;100148.95;1686836;84;21253;-72
2021/08/10 04:57:03;;;;;;;10.30;7.42;;;;;;;21.62;70.20;100155.71;1692008;84;21071;-73
2021/08/10 04:59:31;;;;;;;7.78;6.97;;;;;;;21.65;69.92;100149.41;1702835;84;22252;-73
2021/08/10 05:01:58;;;;;;;10.10;7.17;;;;;;;21.69;69.73;100153.86;1703100;84;21083;-73
2021/08/10 05:04:25;;;;;;;7.62;6.83;;;;;;;21.70;69.62;100157.69;1703537;84;21031;-73
2021/08/10 05:06:53;;;;;;;7.42;6.72;;;;;;;21.76;69.68;100158.77;1703610;84;21059;-73
2021/08/10 05:09:22;;;;;;;7.15;6.45;;;;;;;21.82;69.56;100161.18;1703463;84;21561;-73
2021/08/10 05:11:49;;;;;;;9.43;6.75;;;;;;;21.86;69.50;100161.08;1716015;83;21827;-74
2021/08/10 05:14:17;;;;;;;9.63;6.72;;;;;;;21.93;69.41;100159.26;1703945;84;21098;-73
2021/08/10 05:16:45;;;;;;;7.85;6.22;;;;;;;22.00;69.21;100160.95;1694106;83;21079;-73
2021/08/10 05:19:15;;;;;;;8.08;7.05;;;;;;;22.04;68.85;100156.50;1672163;84;21016;-73
2021/08/10 05:21:43;;;;;;;13.72;7.20;;;;;;;22.06;68.78;100155.27;1675120;85;21014;-74
2021/08/10 05:24:12;;;;;;;8.03;6.95;;;;;;;22.13;68.70;100154.81;1701526;83;22263;-74
2021/08/10 05:26:38;;;;;;;7.92;7.12;;;;;;;22.17;68.52;100161.95;1702809;83;21092;-74
2021/08/10 05:29:05;;;;;;;10.65;6.80;;;;;;;22.22;68.40;100161.66;1703768;84;21068;-73
2021/08/10 05:31:33;;;;;;;8.65;6.75;;;;;;;22.24;67.90;100156.08;1703491;84;21020;-73
2021/08/10 05:34:00;;;;;;;7.80;7.10;;;;;;;22.26;67.87;100151.31;1701478;83;21090;-72
2021/08/10 05:36:27;;;;;;;8.28;7.05;;;;;;;22.32;67.87;100153.72;1703290;83;21827;-73
2021/08/10 05:38:55;;;;;;;9.50;6.67;;;;;;;22.39;67.79;100147.81;1702098;84;20948;-73
2021/08/10 05:41:22;;;;;;;8.83;6.72;;;;;;;22.47;67.33;100145.77;1703685;83;21403;-71
2021/08/10 05:43:50;;;;;;;8.45;6.70;;;;;;;22.52;66.98;100148.69;1703568;83;21481;-75
2021/08/10 05:46:16;;;;;;;7.03;6.20;;;;;;;22.60;66.71;100146.32;1701861;84;21014;-74
2021/08/10 05:48:43;;;;;;;11.38;6.50;;;;;;;22.67;66.40;100143.09;1703620;84;21808;-75
2021/08/10 05:51:09;;;;;;;6.95;6.08;;;;;;;22.76;66.10;100136.47;1703945;84;20965;-75
2021/08/10 05:53:37;;;;;;;6.65;6.05;;;;;;;22.85;65.77;100131.74;1675610;83;21161;-75
2021/08/10 05:56:06;;;;;;;7.10;5.87;;;;;;;22.96;65.62;100138.36;1698517;83;20997;-77
2021/08/10 05:58:33;;;;;;;6.75;5.83;;;;;;;23.04;65.31;100132.77;1708088;83;20970;-77
2021/08/10 06:01:00;;;;;;;6.78;5.70;;;;;;;23.11;64.59;100130.38;1773115;80;21734;-75
2021/08/10 06:03:26;;;;;;;7.80;5.67;;;;;;;23.19;63.81;100133.38;1751349;80;21032;-75
2021/08/10 06:05:53;;;;;;;7.22;5.80;;;;;;;23.24;63.43;100131.39;1760728;80;20933;-73
2021/08/10 06:08:19;;;;;;;6.40;5.80;;;;;;;23.31;63.52;100123.61;1764317;80;20997;-73
2021/08/10 06:10:49;;;;;;;6.42;5.50;;;;;;;23.37;62.85;100125.47;1774372;80;20937;-74
2021/08/10 06:13:16;;;;;;;10.30;5.72;;;;;;;23.38;62.32;100128.99;1775190;80;21806;-73
2021/08/10 06:15:42;;;;;;;6.08;5.47;;;;;;;23.40;62.29;100127.73;1748894;80;20937;-75
2021/08/10 06:18:09;;;;;;;8.03;5.87;;;;;;;23.47;62.58;100120.98;1749671;82;21384;-74
2021/08/10 06:20:36;;;;;;;5.80;5.20;;;;;;;23.58;62.25;100123.55;1745567;82;20992;-74
2021/08/10 06:23:05;;;;;;;6.70;5.42;;;;;;;23.67;61.82;100123.65;1749936;82;20932;-74
2021/08/10 06:25:33;;;;;;;6.28;5.67;;;;;;;23.75;61.22;100116.67;1746476;82;21849;-74
2021/08/10 06:28:00;;;;;;;6.00;5.37;;;;;;;23.82;60.84;100110.70;1745567;82;20996;-73
2021/08/10 06:30:26;;;;;;;5.95;5.20;;;;;;;23.90;61.08;100115.86;1743026;82;21009;-73
2021/08/10 06:32:54;;;;;;;8.13;5.22;;;;;;;24.03;60.90;100106.03;1743415;82;21036;-75
2021/08/10 06:35:23;;;;;;;7.92;5.20;;;;;;;24.16;60.87;100110.02;1743720;82;21115;-74
2021/08/10 06:37:51;;;;;;;8.40;5.80;;;;;;;24.28;60.72;100104.23;1743889;82;21752;-73
2021/08/10 06:40:19;;;;;;;5.90;5.30;;;;;;;24.37;60.24;100099.43;1743608;82;21477;-74
2021/08/10 06:42:48;;;;;;;8.63;5.35;;;;;;;24.45;60.21;100098.65;1743405;82;21046;-73
2021/08/10 06:45:16;;;;;;;5.80;5.20;;;;;;;24.53;59.89;100105.13;1746338;82;20992;-74
2021/08/10 06:47:44;;;;;;;6.42;4.90;;;;;;;24.58;59.47;100099.58;1750044;82;20945;-74
2021/08/10 06:50:13;;;;;;;5.72;5.00;;;;;;;24.65;59.46;100097.14;1749740;80;20941;-74
2021/08/10 06:52:39;;;;;;;7.15;5.22;;;;;;;24.70;58.97;100094.59;1749564;82;20957;-73
2021/08/10 06:55:07;;;;;;;6.20;5.60;;;;;;;24.74;58.54;100095.81;1743769;82;21008;-73
2021/08/10 06:57:34;;;;;;;5.45;4.95;;;;;;;24.76;58.48;100106.39;1750952;81;21083;-76
2021/08/10 07:00:01;;;;;;;6.92;5.35;;;;;;;24.81;58.29;100097.95;1747404;81;20959;-74
2021/08/10 07:02:28;;;;;;;5.28;4.78;;;;;;;24.87;58.20;100090.81;1751413;82;22199;-73
2021/08/10 07:04:54;;;;;;;9.90;5.25;;;;;;;25.00;58.41;100095.28;1752546;82;21023;-73
2021/08/10 07:07:21;;;;;;;7.53;4.45;;;;;;;25.11;57.58;100093.23;1725393;82;21001;-72
2021/08/10 07:09:48;;;;;;;5.95;4.90;;;;;;;25.22;56.93;100092.48;1734988;82;21032;-72
2021/08/10 07:12:15;;;;;;;5.75;4.83;;;;;;;25.29;56.21;100088.36;1734471;82;21040;-72
2021/08/10 07:14:43;;;;;;;5.60;5.00;;;;;;;25.33;56.49;100085.50;1728033;82;21776;-72
2021/08/10 07:17:09;;;;;;;5.87;4.90;;;;;;;25.44;56.93;100094.73;1738856;81;20941;-72
2021/08/10 07:19:37;;;;;;;7.50;4.72;;;;;;;25.56;56.71;100092.91;1751411;82;21013;-72
2021/08/10 07:22:05;;;;;;;5.40;4.90;;;;;;;25.66;56.43;100087.27;1751598;81;20960;-72
2021/08/10 07:24:33;;;;;;;10.82;5.20;;;;;;;25.75;56.19;100091.05;1733453;81;21001;-72
2021/08/10 07:26:59;;;;;;;7.03;5.10;;;;;;;25.79;55.99;100101.20;1692124;84;21817;-71
2021/08/10 07:29:28;;;;;;;7.35;4.58;;;;;;;25.81;55.39;100093.67;1672232;85;21492;-72
2021/08/10 07:31:55;;;;;;;6.67;4.62;;;;;;;25.87;56.02;100091.95;1676248;85;21016;-71
2021/08/10 07:34:23;;;;;;;6.35;5.17;;;;;;;25.96;55.85;100095.95;1676373;85;20977;-72
2021/08/10 07:36:49;;;;;;;9.60;5.17;;;;;;;26.00;55.57;100093.64;1689605;85;21005;-73
2021/08/10 07:39:17;;;;;;;6.47;4.83;;;;;;;26.06;55.57;100088.67;1681788;84;22437;-72
2021/08/10 07:41:44;;;;;;;5.90;4.78;;;;;;;26.14;54.77;100101.86;1713334;83;21085;-73
2021/08/10 07:44:11;;;;;;;9.73;4.75;;;;;;;26.18;54.69;100090.36;1701815;84;20969;-71
2021/08/10 07:46:43;;;;;;;5.97;5.00;;;;;;;26.28;54.56;100087.09;1682588;85;21025;-72
2021/08/10 07:49:11;;;;;;;6.80;5.03;;;;;;;26.37;54.61;100084.87;1688905;85;21020;-71
2021/08/10 07:51:38;;;;;;;5.17;4.67;;;;;;;26.46;54.53;100083.52;1686016;84;21816;-71
2021/08/10 07:54:04;;;;;;;6.35;5.33;;;;;;;26.47;53.77;100079.74;1677219;84;21100;-71
2021/08/10 07:56:31;;;;;;;8.55;4.78;;;;;;;26.44;54.05;100090.52;1676656;84;21014;-72
2021/08/10 07:58:58;;;;;;;6.60;4.92;;;;;;;26.48;54.48;100082.22;1709783;83;21457;-71
2021/08/10 08:01:24;;;;;;;5.45;4.55;;;;;;;26.57;54.32;100079.99;1702536;84;21538;-71
2021/08/10 08:03:52;;;;;;;6.72;5.20;;;;;;;26.66;54.30;100081.83;1700222;83;22677;-71
2021/08/10 08:06:19;;;;;;;6.37;4.67;;;;;;;26.78;53.80;100084.84;1719390;83;21109;-71
2021/08/10 08:08:46;;;;;;;9.35;5.08;;;;;;;26.86;53.24;100081.48;1679089;84;21051;-72
2021/08/10 08:11:14;;;;;;;7.60;4.80;;;;;;;26.90;52.58;100076.70;1687105;84;21079;-71
2021/08/10 08:13:41;;;;;;;5.62;4.75;;;;;;;26.96;52.42;100077.13;1719339;83;20965;-72
2021/08/10 08:16:09;;;;;;;5.10;4.60;;;;;;;27.03;51.81;100079.22;1693763;84;22732;-72
2021/08/10 08:18:37;;;;;;;8.58;4.90;;;;;;;27.03;52.18;100073.80;1719235;82;20984;-73
2021/08/10 08:21:05;;;;;;;7.97;4.80;;;;;;;27.02;51.36;100070.80;1708726;83;21039;-74
2021/08/10 08:23:34;;;;;;;5.87;4.85;;;;;;;27.00;51.21;100085.06;1705441;84;20969;-75
2021/08/10 08:26:02;;;;;;;6.17;4.47;;;;;;;27.03;51.82;100085.17;1685525;84;21069;-75
2021/08/10 08:28:33;;;;;;;8.05;4.70;;;;;;;27.17;52.18;100084.38;1688769;84;21877;-73
2021/08/10 08:31:01;;;;;;;8.43;5.37;;;;;;;27.27;51.87;100090.03;1703247;83;20945;-75
2021/08/10 08:33:29;;;;;;;7.17;4.42;;;;;;;27.30;51.82;100082.23;1702976;84;21013;-73
2021/08/10 08:35:56;;;;;;;6.45;4.70;;;;;;;27.35;52.23;100094.56;1702523;84;20989;-72
2021/08/10 08:38:23;;;;;;;7.33;4.90;;;;;;;27.48;51.59;100088.56;1719602;83;20961;-75
2021/08/10 08:40:52;;;;;;;5.45;4.95;;;;;;;27.54;51.18;100088.98;1700581;84;22578;-75
2021/08/10 08:43:21;;;;;;;8.73;4.60;;;;;;;27.54;50.28;100088.45;1685063;85;21013;-75
2021/08/10 08:45:48;;;;;;;6.62;4.58;;;;;;;27.55;51.03;100084.66;1713503;83;21021;-75
2021/08/10 08:48:15;;;;;;;7.55;4.95;;;;;;;27.70;51.29;100081.48;1693668;84;21081;-75
2021/08/10 08:50:45;;;;;;;7.08;4.80;;;;;;;27.83;51.02;100082.55;1689329;83;21473;-75
2021/08/10 08:53:14;;;;;;;6.95;5.05;;;;;;;27.91;49.84;100084.87;1719524;83;22849;-75
2021/08/10 08:55:43;;;;;;;6.25;4.60;;;;;;;27.89;49.48;100088.37;1677701;85;21004;-76
2021/08/10 08:58:14;;;;;;;6.22;4.87;;;;;;;27.91;49.63;100082.16;1749155;81;21457;-75
2021/08/10 09:00:42;;;;;;;7.28;4.95;;;;;;;27.96;49.79;100071.91;1732152;82;20981;-74
2021/08/10 09:03:09;;;;;;;6.70;4.70;;;;;;;28.01;49.58;100073.92;1743677;82;20993;-74
2021/08/10 09:05:39;;;;;;;6.08;4.78;;;;;;;27.95;48.82;100072.98;1743821;82;21805;-75
2021/08/10 09:08:34;;;;;;;5.10;4.40;;;;;;;27.98;49.01;100067.06;1743597;82;21092;-75
2021/08/10 09:11:10;;;;;;;6.45;4.65;;;;;;;28.06;49.39;100063.95;1741523;82;21034;-75
2021/08/10 09:13:40;;;;;;;7.08;4.70;;;;;;;28.23;49.51;100062.63;1737500;82;21505;-75
2021/08/10 09:16:09;;;;;;;5.83;4.65;;;;;;;28.32;48.78;100067.16;1737866;82;21470;-74
2021/08/10 09:18:38;;;;;;;6.72;4.95;;;;;;;28.35;48.51;100062.59;1737443;82;20983;-74
2021/08/10 09:21:13;;;;;;;5.10;4.60;;;;;;;28.31;48.05;100056.83;1738264;81;21016;-74
2021/08/10 09:23:52;;;;;;;6.65;4.08;;;;;;;28.32;48.45;100053.05;1743644;82;20961;-74
2021/08/10 09:26:26;;;;;;;6.03;4.50;;;;;;;28.39;48.39;100068.66;1744103;82;21353;-74
2021/08/10 09:29:00;;;;;;;7.20;4.65;;;;;;;28.44;47.97;100052.42;1742021;82;20981;-74
2021/08/10 09:31:41;;;;;;;5.95;4.72;;;;;;;28.51;48.19;100053.63;1744285;82;21782;-74
2021/08/10 09:34:28;;;;;;;6.22;4.60;;;;;;;28.64;47.69;100052.45;1719815;83;20961;-74
2021/08/10 09:36:54;;;;;;;8.23;4.75;;;;;;;28.69;47.85;100037.61;1732667;82;20971;-74
2021/08/10 09:39:26;;;;;;;4.80;4.25;;;;;;;28.83;47.76;100040.78;1744538;82;20957;-74
2021/08/10 09:42:13;;;;;;;6.03;4.33;;;;;;;28.97;47.74;100042.12;1743239;82;20986;-75
2021/08/10 09:45:05;;;;;;;8.05;4.30;;;;;;;29.08;47.41;100039.83;1715881;82;22624;-72
2021/08/10 09:47:36;;;;;;;6.20;4.62;;;;;;;29.19;46.59;100033.44;1743892;82;21421;-72
2021/08/10 09:50:23;;;;;;;5.72;4.37;;;;;;;29.25;46.08;100043.32;1743853;80;20949;-72
2021/08/10 09:52:48;;;;;;;7.70;4.40;;;;;;;29.28;46.59;100034.64;1740946;82;21056;-72
2021/08/10 09:55:16;;;;;;;8.70;4.03;;;;;;;29.30;45.10;100046.09;1745032;82;21036;-73
2021/08/10 09:58:03;;;;;;;4.62;3.67;;;;;;;29.29;45.90;100036.83;1749134;81;21021;-72
2021/08/10 10:00:39;;;;;;;11.15;4.12;;;;;;;29.47;46.19;100032.97;1748896;81;20949;-72
2021/08/10 10:03:25;;;;;;;5.62;3.65;;;;;;;29.66;45.56;100032.12;1749185;81;21036;-72
2021/08/10 10:06:09;;;;;;;6.20;4.10;;;;;;;29.79;44.76;100047.50;1749358;81;21046;-74
2021/08/10 10:08:36;;;;;;;6.85;4.28;;;;;;;29.79;44.88;100026.27;1751395;81;21064;-73
2021/08/10 10:11:03;;;;;;;8.85;4.42;;;;;;;29.79;45.51;100026.27;1759159;80;21842;-74
2021/08/10 10:13:33;;;;;;;6.55;3.90;;;;;;;29.90;45.59;100032.91;1786726;80;20937;-73
2021/08/10 10:16:01;;;;;;;5.87;4.60;;;;;;;29.95;45.92;100029.44;1736465;80;20933;-73
2021/08/10 10:18:29;;;;;;;6.45;3.95;;;;;;;29.99;45.39;100027.83;1735552;80;21008;-73
2021/08/10 10:20:56;;;;;;;8.78;4.40;;;;;;;30.04;45.35;100021.62;1786755;80;21008;-73
2021/08/10 10:23:26;;;;;;;7.87;4.20;;;;;;;30.07;45.10;100028.75;1773139;80;22155;-72
2021/08/10 10:25:53;;;;;;;9.88;4.40;;;;;;;30.11;45.11;100024.96;1749058;81;21393;-72
2021/08/10 10:28:20;;;;;;;6.62;4.10;;;;;;;30.09;45.36;100012.97;1747302;81;20961;-72
2021/08/10 10:30:49;;;;;;;5.90;4.10;;;;;;;30.12;44.91;100021.19;1750994;81;21008;-72
2021/08/10 10:33:15;;;;;;;6.70;4.33;;;;;;;30.13;45.25;100011.93;1740587;82;21119;-72
2021/08/10 10:35:42;;;;;;;6.62;4.50;;;;;;;30.20;45.24;100018.78;1740746;82;22196;-72
2021/08/10 10:38:09;;;;;;;5.83;4.17;;;;;;;30.32;44.93;100005.55;1740362;82;21421;-72
2021/08/10 10:40:36;;;;;;;16.90;4.28;;;;;;;30.45;45.39;100003.19;1741147;82;21015;-72
2021/08/10 10:43:02;;;;;;;5.37;3.92;;;;;;;30.91;43.91;99998.60;1740520;82;20959;-72
2021/08/10 10:45:35;;;;;;;6.28;4.10;;;;;;;30.91;43.91;99998.60;1740549;82;20995;-72
2021/08/10 10:48:21;;;;;;;10.60;3.92;;;;;;;30.99;43.54;99996.19;1740542;82;21824;-72
2021/08/10 10:51:08;;;;;;;8.08;4.17;;;;;;;31.05;44.04;99999.75;1685424;83;21008;-72
2021/08/10 10:53:35;;;;;;;6.60;4.00;;;;;;;31.06;42.92;100000.02;1744089;81;21031;-72
2021/08/10 10:56:02;;;;;;;6.45;3.87;;;;;;;31.09;42.56;99999.51;1745564;81;21077;-72
2021/08/10 10:58:33;;;;;;;8.48;4.40;;;;;;;31.13;43.26;99997.88;1725214;82;21525;-72
2021/08/10 11:01:16;;;;;;;7.15;3.65;;;;;;;31.31;42.87;99998.80;1720638;82;21865;-73
2021/08/10 11:04:07;;;;;;;7.85;3.52;;;;;;;31.58;41.88;100008.72;1721173;83;21366;-73
2021/08/10 11:06:45;;;;;;;6.95;3.87;;;;;;;31.63;41.63;99997.25;1721209;83;21053;-74
2021/08/10 11:09:42;;;;;;;6.75;3.25;;;;;;;31.68;40.79;100009.28;1721191;83;21061;-75
2021/08/10 11:12:42;;;;;;;11.00;3.80;;;;;;;31.66;41.52;99999.19;1721287;83;21010;-74
2021/08/10 11:15:21;;;;;;;5.87;3.80;;;;;;;31.70;40.84;100005.73;1720906;82;20947;-75
2021/08/10 11:18:10;;;;;;;6.33;3.90;;;;;;;31.73;40.77;100001.91;1721378;83;21010;-74
2021/08/10 11:20:43;;;;;;;5.40;3.55;;;;;;;31.82;40.39;100003.05;1729748;81;20988;-76
2021/08/10 11:23:25;;;;;;;6.75;3.70;;;;;;;31.81;39.92;100000.05;1736990;81;21337;-75
2021/08/10 11:26:08;;;;;;;7.72;3.37;;;;;;;31.78;40.69;99997.86;1742663;82;21027;-75
2021/08/10 11:28:47;;;;;;;5.47;3.35;;;;;;;31.79;40.46;99999.50;1742667;82;21858;-76
2021/08/10 11:31:32;;;;;;;9.05;3.50;;;;;;;31.84;40.70;99989.94;1736340;82;20947;-76
2021/08/10 11:33:59;;;;;;;5.58;3.55;;;;;;;32.01;40.48;99984.22;1721335;83;21484;-74
2021/08/10 11:36:28;;;;;;;8.30;4.30;;;;;;;32.13;39.80;99983.94;1721070;83;20998;-74
2021/08/10 11:39:05;;;;;;;7.53;3.62;;;;;;;32.12;40.23;99972.73;1721203;83;21053;-75
2021/08/10 11:41:35;;;;;;;7.55;3.85;;;;;;;32.23;39.45;99974.38;1721017;83;21836;-75